Time;durP1;ratioP1;P1;durP2;ratioP2;P2;SDS_P1;SDS_P2;PMS_P1;PMS_P2;Temp;Humidity;BMP_temperature;BMP_pressure;BME280_temperature;BME280_humidity;BME280_pressure;Samples;Min_cycle;Max_cycle;Signal;HPM_P1;HPM_P2
2023/05/18 00:01:06;;;;;;;1.50;1.20;;;9.50;98.20;;;;;;5032105;28;21060;-77
2023/05/18 00:03:33;;;;;;;1.50;1.10;;;9.50;98.20;;;;;;5047443;28;20499;-77
2023/05/18 00:06:03;;;;;;;1.50;1.13;;;9.50;98.20;;;;;;5035986;28;20529;-77
2023/05/18 00:08:30;;;;;;;1.50;1.17;;;9.40;98.20;;;;;;5060192;28;20508;-77
2023/05/18 00:10:57;;;;;;;1.50;1.20;;;9.40;98.20;;;;;;5039188;28;20462;-78
2023/05/18 00:13:24;;;;;;;1.50;1.10;;;9.40;98.20;;;;;;5053715;28;20467;-77
2023/05/18 00:15:51;;;;;;;1.43;1.20;;;9.40;98.20;;;;;;5035557;28;20485;-77
2023/05/18 00:18:22;;;;;;;1.50;1.10;;;9.40;98.20;;;;;;5059333;28;20486;-78
2023/05/18 00:20:50;;;;;;;1.50;1.20;;;9.30;98.20;;;;;;5036375;28;20462;-77
2023/05/18 00:23:17;;;;;;;1.50;1.10;;;9.30;98.20;;;;;;5053104;28;20504;-78
2023/05/18 00:25:44;;;;;;;1.43;1.10;;;9.20;98.20;;;;;;5049405;28;20492;-78
2023/05/18 00:28:11;;;;;;;1.47;1.10;;;9.20;98.20;;;;;;5047428;28;20482;-77
2023/05/18 00:30:38;;;;;;;1.50;1.20;;;9.20;98.20;;;;;;5047903;28;20470;-78
2023/05/18 00:33:05;;;;;;;1.50;1.20;;;9.20;98.20;;;;;;5048663;28;20941;-77
2023/05/18 00:35:33;;;;;;;1.50;1.13;;;9.20;98.20;;;;;;5047430;28;20469;-76
2023/05/18 00:38:00;;;;;;;1.50;1.10;;;9.10;98.20;;;;;;5041842;28;20490;-77
2023/05/18 00:40:28;;;;;;;1.50;1.10;;;9.10;98.20;;;;;;5046161;28;20633;-77
2023/05/18 00:42:55;;;;;;;1.50;1.10;;;9.10;98.20;;;;;;5052787;28;20484;-77
2023/05/18 00:45:22;;;;;;;1.50;1.20;;;9.10;98.20;;;;;;5048532;28;20923;-78
2023/05/18 00:47:49;;;;;;;1.50;1.10;;;9.10;98.20;;;;;;5049092;28;20565;-77
2023/05/18 00:50:18;;;;;;;1.50;1.20;;;9.10;98.20;;;;;;5048453;28;20577;-77
2023/05/18 00:52:46;;;;;;;1.50;1.10;;;9.10;98.20;;;;;;5050094;28;20501;-79
2023/05/18 00:55:14;;;;;;;1.50;1.20;;;9.00;98.20;;;;;;5044831;28;20462;-77
2023/05/18 00:57:43;;;;;;;1.50;1.10;;;9.00;98.20;;;;;;5041868;28;20838;-75
2023/05/18 01:00:12;;;;;;;1.50;1.20;;;9.00;98.20;;;;;;5044606;28;20467;-78
2023/05/18 01:02:41;;;;;;;1.50;1.20;;;8.90;98.20;;;;;;5052543;28;20493;-78
2023/05/18 01:05:09;;;;;;;1.50;1.17;;;8.90;98.20;;;;;;5048752;28;20986;-78
2023/05/18 01:07:37;;;;;;;1.47;1.20;;;8.90;98.20;;;;;;5044420;28;20587;-78
2023/05/18 01:10:07;;;;;;;1.50;1.30;;;8.90;98.20;;;;;;5044666;28;20837;-78
2023/05/18 01:12:41;;;;;;;1.50;1.20;;;8.80;98.20;;;;;;5050074;28;21084;-77
2023/05/18 01:15:11;;;;;;;1.50;1.20;;;8.80;98.20;;;;;;5044231;28;20910;-78
2023/05/18 01:17:46;;;;;;;1.50;1.20;;;8.80;98.20;;;;;;5048292;28;20485;-77
2023/05/18 01:20:23;;;;;;;1.50;1.20;;;8.80;98.20;;;;;;5041967;28;20467;-77
2023/05/18 01:23:08;;;;;;;1.50;1.17;;;8.70;98.20;;;;;;5047970;28;20478;-77
2023/05/18 01:25:50;;;;;;;1.50;1.20;;;8.70;98.20;;;;;;5045328;28;20629;-77
2023/05/18 01:28:25;;;;;;;1.50;1.20;;;8.70;98.20;;;;;;5030569;28;20479;-77
2023/05/18 01:30:53;;;;;;;1.50;1.10;;;8.60;98.20;;;;;;5036251;28;20886;-77
2023/05/18 01:33:26;;;;;;;1.50;1.20;;;8.60;98.20;;;;;;5049664;28;20458;-78
2023/05/18 01:35:53;;;;;;;1.50;1.20;;;8.60;98.20;;;;;;5017273;28;21037;-76
2023/05/18 01:38:23;;;;;;;1.60;1.50;;;8.60;98.20;;;;;;5057289;28;21076;-77
2023/05/18 01:40:56;;;;;;;1.50;1.10;;;8.60;98.20;;;;;;5034846;28;20473;-78
2023/05/18 01:43:29;;;;;;;1.50;1.20;;;8.60;98.20;;;;;;5046566;28;20462;-76
2023/05/18 01:46:00;;;;;;;1.50;1.20;;;8.50;98.20;;;;;;5034095;28;20492;-77
2023/05/18 01:48:27;;;;;;;1.50;1.20;;;8.50;98.20;;;;;;5052469;28;20489;-76
2023/05/18 01:50:57;;;;;;;1.50;1.10;;;8.50;98.20;;;;;;5033840;28;20466;-76
2023/05/18 01:53:27;;;;;;;1.50;1.23;;;8.40;98.20;;;;;;5046167;28;20471;-77
2023/05/18 01:55:55;;;;;;;1.50;1.20;;;8.40;98.20;;;;;;5033745;28;20480;-77
2023/05/18 01:58:24;;;;;;;1.47;1.20;;;8.40;98.20;;;;;;5044607;28;20505;-77
2023/05/18 02:00:51;;;;;;;1.50;1.20;;;8.40;98.20;;;;;;5027920;28;20559;-76
2023/05/18 02:03:18;;;;;;;1.50;1.20;;;8.40;98.20;;;;;;5051198;28;20477;-76
2023/05/18 02:05:45;;;;;;;1.50;1.20;;;8.30;98.20;;;;;;5044077;28;20569;-77
2023/05/18 02:08:12;;;;;;;1.50;1.20;;;8.30;98.20;;;;;;5030134;28;20562;-76
2023/05/18 02:10:38;;;;;;;1.50;1.30;;;8.30;98.20;;;;;;5044089;28;20805;-76
2023/05/18 02:13:05;;;;;;;1.50;1.20;;;8.30;98.20;;;;;;5041966;28;20471;-76
2023/05/18 02:15:33;;;;;;;1.50;1.20;;;8.20;98.20;;;;;;5042317;28;20466;-76
2023/05/18 02:18:01;;;;;;;1.50;1.17;;;8.20;98.20;;;;;;5040375;28;20488;-76
2023/05/18 02:20:31;;;;;;;1.50;1.20;;;8.20;98.20;;;;;;5043303;28;20458;-76
2023/05/18 02:22:58;;;;;;;1.50;1.13;;;8.20;98.20;;;;;;5040118;28;21106;-76
2023/05/18 02:25:25;;;;;;;1.50;1.20;;;8.20;98.20;;;;;;5045613;28;20947;-80
2023/05/18 02:27:52;;;;;;;1.50;1.30;;;8.20;98.20;;;;;;5046884;28;20548;-78
2023/05/18 02:30:19;;;;;;;1.50;1.20;;;8.20;98.20;;;;;;5047400;28;20524;-78
2023/05/18 02:32:48;;;;;;;1.50;1.20;;;8.20;98.20;;;;;;5044852;28;20512;-77
2023/05/18 02:35:16;;;;;;;1.50;1.20;;;8.20;98.20;;;;;;5049464;28;20462;-77
2023/05/18 02:37:43;;;;;;;1.50;1.20;;;8.10;98.20;;;;;;5044941;28;20579;-78
2023/05/18 02:40:11;;;;;;;1.50;1.30;;;8.10;98.20;;;;;;5042811;28;20482;-77
2023/05/18 02:42:38;;;;;;;1.50;1.20;;;8.10;98.20;;;;;;5037913;28;20489;-79
2023/05/18 02:45:07;;;;;;;1.50;1.20;;;8.00;98.20;;;;;;5042148;28;20520;-79
2023/05/18 02:47:34;;;;;;;1.50;1.30;;;8.00;98.20;;;;;;5047368;28;20481;-79
2023/05/18 02:50:02;;;;;;;1.50;1.30;;;8.00;98.20;;;;;;5050703;28;20462;-79
2023/05/18 02:52:29;;;;;;;1.50;1.20;;;8.00;98.20;;;;;;5047803;28;20559;-78
2023/05/18 02:54:56;;;;;;;1.50;1.20;;;8.00;98.20;;;;;;5053070;28;20561;-78
2023/05/18 02:57:23;;;;;;;1.50;1.23;;;8.00;98.20;;;;;;5045812;28;20491;-77
2023/05/18 02:59:50;;;;;;;1.50;1.20;;;7.90;98.20;;;;;;5049443;28;20553;-79
2023/05/18 03:02:17;;;;;;;1.50;1.30;;;7.90;98.20;;;;;;5047093;28;20482;-77
2023/05/18 03:04:46;;;;;;;1.50;1.30;;;7.90;98.20;;;;;;5054908;28;20470;-79
2023/05/18 03:07:14;;;;;;;1.50;1.20;;;7.90;98.20;;;;;;5044767;28;20488;-78
2023/05/18 03:09:41;;;;;;;1.50;1.23;;;7.80;98.20;;;;;;5048959;28;20559;-77
2023/05/18 03:12:08;;;;;;;1.50;1.30;;;7.80;98.20;;;;;;5045221;28;20881;-78
2023/05/18 03:14:35;;;;;;;1.50;1.20;;;7.80;98.20;;;;;;5049189;28;20464;-77
2023/05/18 03:17:04;;;;;;;1.50;1.30;;;7.70;98.20;;;;;;5038892;28;20490;-78
2023/05/18 03:19:31;;;;;;;1.50;1.20;;;7.70;98.20;;;;;;5048751;28;20482;-77
2023/05/18 03:22:13;;;;;;;1.50;1.30;;;7.70;98.20;;;;;;5039893;28;20478;-78
2023/05/18 03:24:42;;;;;;;1.50;1.30;;;7.60;98.20;;;;;;5049579;28;20552;-78
2023/05/18 03:27:08;;;;;;;1.50;1.20;;;7.60;98.20;;;;;;5042249;28;20488;-78
2023/05/18 03:29:35;;;;;;;1.50;1.10;;;7.50;98.20;;;;;;5053554;28;20548;-77
2023/05/18 03:32:02;;;;;;;1.50;1.30;;;7.50;98.20;;;;;;5041588;28;20469;-77
2023/05/18 03:34:29;;;;;;;1.50;1.20;;;7.40;98.20;;;;;;5051925;28;20472;-77
2023/05/18 03:36:56;;;;;;;1.50;1.20;;;7.40;98.20;;;;;;5031179;28;20482;-77
2023/05/18 03:39:23;;;;;;;1.50;1.20;;;7.40;98.20;;;;;;5047162;28;20497;-75
2023/05/18 03:41:52;;;;;;;1.50;1.23;;;7.40;98.20;;;;;;5034833;28;20513;-75
2023/05/18 03:44:18;;;;;;;1.50;1.20;;;7.30;98.20;;;;;;5049526;28;20458;-76
2023/05/18 03:46:45;;;;;;;1.50;1.30;;;7.40;98.20;;;;;;5045756;28;20485;-76
2023/05/18 03:49:12;;;;;;;1.50;1.30;;;7.30;98.20;;;;;;5058829;28;20462;-75
2023/05/18 03:51:39;;;;;;;1.50;1.20;;;7.30;98.20;;;;;;5043731;28;20481;-75
2023/05/18 03:54:09;;;;;;;1.50;1.20;;;7.30;98.20;;;;;;5051573;28;20458;-75
2023/05/18 03:56:35;;;;;;;1.50;1.20;;;7.30;98.20;;;;;;5038510;28;20870;-75
2023/05/18 03:59:04;;;;;;;1.50;1.30;;;7.30;98.20;;;;;;5055357;28;20465;-75
2023/05/18 04:01:31;;;;;;;1.50;1.30;;;7.30;98.20;;;;;;5040567;28;20511;-76
2023/05/18 04:03:58;;;;;;;1.50;1.30;;;7.30;98.20;;;;;;5049945;28;20557;-75
2023/05/18 04:06:25;;;;;;;1.57;1.40;;;7.30;98.20;;;;;;5040209;28;20477;-75
2023/05/18 04:08:53;;;;;;;1.50;1.20;;;7.30;98.20;;;;;;5055293;28;20547;-75
2023/05/18 04:11:21;;;;;;;1.50;1.20;;;7.30;98.20;;;;;;5040146;28;20552;-76
2023/05/18 04:13:49;;;;;;;1.50;1.30;;;7.30;98.20;;;;;;5053922;28;20991;-76
2023/05/18 04:16:18;;;;;;;1.50;1.27;;;7.30;98.20;;;;;;5039661;28;20915;-76
2023/05/18 04:18:45;;;;;;;1.53;1.40;;;7.30;98.20;;;;;;5050641;28;20505;-76
2023/05/18 04:21:14;;;;;;;1.50;1.30;;;7.30;98.20;;;;;;5029616;28;20967;-76
2023/05/18 04:23:41;;;;;;;1.50;1.20;;;7.40;98.20;;;;;;5054672;28;20474;-76
2023/05/18 04:26:08;;;;;;;1.50;1.20;;;7.40;98.20;;;;;;5039212;28;20488;-76
2023/05/18 04:28:36;;;;;;;1.50;1.30;;;7.40;98.20;;;;;;5059033;28;20486;-76
2023/05/18 04:31:03;;;;;;;1.50;1.20;;;7.40;98.20;;;;;;5037322;28;20462;-76
2023/05/18 04:33:31;;;;;;;1.50;1.30;;;7.50;98.20;;;;;;5056712;28;20551;-76
2023/05/18 04:36:03;;;;;;;1.50;1.17;;;7.50;98.20;;;;;;5038154;28;21125;-76
2023/05/18 04:38:31;;;;;;;1.50;1.20;;;7.60;98.20;;;;;;5053277;28;20493;-76
2023/05/18 04:40:59;;;;;;;1.50;1.20;;;7.60;98.20;;;;;;5037054;28;20457;-75
2023/05/18 04:43:27;;;;;;;1.50;1.30;;;7.70;98.20;;;;;;5055842;28;20817;-76
2023/05/18 04:45:53;;;;;;;1.50;1.27;;;7.70;98.20;;;;;;5039018;28;20470;-76
2023/05/18 04:48:20;;;;;;;1.50;1.20;;;7.80;98.20;;;;;;5050422;28;20495;-77
2023/05/18 04:50:48;;;;;;;1.50;1.30;;;7.90;98.20;;;;;;5043355;28;20462;-76
2023/05/18 04:53:16;;;;;;;1.50;1.30;;;8.00;98.20;;;;;;5054682;28;20474;-76
2023/05/18 04:55:45;;;;;;;1.50;1.20;;;8.10;98.20;;;;;;5048954;28;20461;-77
2023/05/18 04:58:12;;;;;;;1.50;1.20;;;8.20;98.20;;;;;;5028066;28;20536;-76
2023/05/18 05:00:38;;;;;;;1.50;1.23;;;8.30;98.20;;;;;;5045790;28;20455;-76
2023/05/18 05:03:05;;;;;;;1.50;1.10;;;8.40;98.20;;;;;;5044990;28;20874;-76
2023/05/18 05:05:32;;;;;;;1.47;1.20;;;8.60;98.20;;;;;;5049088;28;20469;-76
2023/05/18 05:08:03;;;;;;;1.50;1.20;;;8.80;98.20;;;;;;5052111;28;20488;-76
2023/05/18 05:10:30;;;;;;;1.47;1.20;;;9.00;98.20;;;;;;5047946;28;20516;-79
2023/05/18 05:12:57;;;;;;;1.50;1.20;;;9.10;98.20;;;;;;5047529;28;21161;-77
2023/05/18 05:15:24;;;;;;;1.50;1.20;;;9.30;98.20;;;;;;5045444;28;20520;-78
2023/05/18 05:17:50;;;;;;;1.50;1.20;;;9.50;98.20;;;;;;5048064;28;20480;-77
2023/05/18 05:20:18;;;;;;;1.50;1.10;;;9.70;98.20;;;;;;5046254;28;20464;-78
2023/05/18 05:22:45;;;;;;;1.47;1.17;;;9.90;98.20;;;;;;5049747;28;20993;-78
2023/05/18 05:25:13;;;;;;;1.50;1.10;;;10.00;98.20;;;;;;5051808;28;20851;-77
2023/05/18 05:27:40;;;;;;;1.50;1.20;;;10.20;98.20;;;;;;5048763;28;20490;-78
2023/05/18 05:30:08;;;;;;;1.50;1.10;;;10.40;98.20;;;;;;5046696;28;20459;-79
2023/05/18 05:32:35;;;;;;;1.50;1.10;;;10.60;98.20;;;;;;5049346;28;20474;-76
2023/05/18 05:35:02;;;;;;;1.50;1.10;;;10.70;98.20;;;;;;5043634;28;20519;-76
2023/05/18 05:37:29;;;;;;;1.50;1.10;;;10.70;98.20;;;;;;5041887;28;20876;-77
2023/05/18 05:39:56;;;;;;;1.50;1.03;;;10.90;98.20;;;;;;5047201;28;21024;-77
2023/05/18 05:42:24;;;;;;;1.50;1.20;;;11.00;98.20;;;;;;5046692;28;20557;-77
2023/05/18 05:44:51;;;;;;;1.47;1.10;;;11.10;98.20;;;;;;5042894;28;20451;-78
2023/05/18 05:47:18;;;;;;;1.50;1.10;;;11.20;98.20;;;;;;5045803;28;20470;-75
2023/05/18 05:49:44;;;;;;;1.50;1.10;;;11.40;98.20;;;;;;5046978;28;20458;-75
2023/05/18 05:52:11;;;;;;;1.50;1.10;;;11.50;98.20;;;;;;5041621;28;20477;-76
2023/05/18 05:54:38;;;;;;;1.50;1.10;;;11.70;97.00;;;;;;5053617;28;20481;-76
2023/05/18 05:57:05;;;;;;;1.50;1.10;;;11.80;96.60;;;;;;5043639;28;20649;-76
2023/05/18 05:59:34;;;;;;;1.50;1.07;;;12.00;96.50;;;;;;5058199;28;20464;-75
2023/05/18 06:02:00;;;;;;;1.47;1.00;;;12.20;96.20;;;;;;5047524;28;20486;-76
2023/05/18 06:04:27;;;;;;;1.50;1.10;;;12.40;94.60;;;;;;5058682;28;20453;-76
2023/05/18 06:06:54;;;;;;;1.50;1.10;;;12.50;94.20;;;;;;5046131;28;20477;-76
2023/05/18 06:09:21;;;;;;;1.50;1.00;;;12.60;93.30;;;;;;5060432;28;20461;-76
2023/05/18 06:11:48;;;;;;;1.50;1.00;;;12.70;93.40;;;;;;5047234;28;20477;-76
2023/05/18 06:14:14;;;;;;;1.47;1.00;;;12.80;93.10;;;;;;5057150;28;20455;-76
2023/05/18 06:16:43;;;;;;;1.50;0.90;;;13.00;92.80;;;;;;5042418;28;20534;-76
2023/05/18 06:19:09;;;;;;;1.50;1.00;;;13.10;91.60;;;;;;5049508;28;20820;-76
2023/05/18 06:21:53;;;;;;;1.47;1.00;;;13.20;91.70;;;;;;5042309;28;20479;-77
2023/05/18 06:24:19;;;;;;;1.50;1.00;;;13.30;91.30;;;;;;5051902;28;20470;-75
2023/05/18 06:26:46;;;;;;;1.47;1.00;;;13.50;91.10;;;;;;5049023;28;20981;-75
2023/05/18 06:29:13;;;;;;;1.43;1.00;;;13.60;90.40;;;;;;5051621;28;20536;-75
2023/05/18 06:31:41;;;;;;;1.50;1.10;;;13.80;90.10;;;;;;5045917;28;20492;-75
2023/05/18 06:34:08;;;;;;;1.50;1.00;;;14.00;89.50;;;;;;5049750;28;20470;-75
2023/05/18 06:40:34;;;;;;;1.47;1.00;;;14.40;88.30;;;;;;4968522;28;20466;-76
2023/05/18 06:43:00;;;;;;;1.50;1.00;;;14.50;87.30;;;;;;5035734;28;20863;-75
2023/05/18 06:45:27;;;;;;;1.50;1.00;;;14.60;87.50;;;;;;5053708;28;20479;-75
2023/05/18 06:47:55;;;;;;;1.50;0.90;;;14.70;86.60;;;;;;5037592;28;20471;-78
2023/05/18 06:50:22;;;;;;;1.43;0.90;;;14.80;85.50;;;;;;5058501;28;20543;-78
2023/05/18 06:52:50;;;;;;;1.43;1.00;;;14.70;86.10;;;;;;5033130;28;21011;-76
2023/05/18 06:55:17;;;;;;;1.47;0.90;;;14.80;87.00;;;;;;5046924;28;20510;-76
2023/05/18 06:57:45;;;;;;;1.50;0.90;;;15.00;86.20;;;;;;5031619;28;20483;-77
2023/05/18 07:00:13;;;;;;;1.97;1.30;;;15.20;84.70;;;;;;5051169;28;20477;-77
2023/05/18 07:02:42;;;;;;;1.50;1.00;;;15.30;84.10;;;;;;5049741;28;20554;-77
2023/05/18 07:05:11;;;;;;;1.40;0.90;;;15.40;84.20;;;;;;5051957;28;20467;-76
2023/05/18 07:07:38;;;;;;;1.47;0.90;;;15.40;84.00;;;;;;5051449;28;20485;-76
2023/05/18 07:10:08;;;;;;;1.50;1.00;;;15.50;84.20;;;;;;5049033;28;20484;-77
2023/05/18 07:12:35;;;;;;;1.50;0.90;;;15.60;83.60;;;;;;5049025;28;20859;-76
2023/05/18 07:15:04;;;;;;;1.50;1.00;;;15.80;83.00;;;;;;5053763;28;21007;-76
2023/05/18 07:17:31;;;;;;;1.50;1.00;;;16.00;82.50;;;;;;5034766;28;20852;-76
2023/05/18 07:19:58;;;;;;;1.50;0.90;;;16.00;82.10;;;;;;5051867;28;20557;-76
2023/05/18 07:22:58;;;;;;;1.43;0.97;;;16.00;81.50;;;;;;5048696;28;20766;-76
2023/05/18 07:25:28;;;;;;;1.50;0.90;;;15.80;80.10;;;;;;5049923;28;20514;-75
2023/05/18 07:27:56;;;;;;;1.60;1.10;;;15.70;82.60;;;;;;5049572;28;20932;-76
2023/05/18 07:30:26;;;;;;;1.50;1.00;;;15.70;81.60;;;;;;5048836;28;20462;-76
2023/05/18 07:32:55;;;;;;;1.47;0.90;;;16.00;81.10;;;;;;5043853;28;20474;-76
2023/05/18 07:35:22;;;;;;;1.47;0.90;;;15.90;79.40;;;;;;5056683;28;20866;-77
2023/05/18 07:37:52;;;;;;;1.43;1.00;;;15.90;80.10;;;;;;5050671;28;20497;-76
2023/05/18 07:40:20;;;;;;;1.50;0.90;;;16.10;79.60;;;;;;5050831;28;20469;-76
2023/05/18 07:42:48;;;;;;;1.43;0.90;;;16.40;79.70;;;;;;5051229;28;20519;-77
2023/05/18 07:45:16;;;;;;;1.43;1.00;;;16.50;79.70;;;;;;5057782;28;20763;-76
2023/05/18 07:47:43;;;;;;;1.50;0.90;;;16.70;78.60;;;;;;5050359;28;20508;-76
2023/05/18 07:50:11;;;;;;;1.43;0.90;;;16.90;77.30;;;;;;5048466;28;20466;-76
2023/05/18 07:52:38;;;;;;;1.47;0.90;;;17.10;77.70;;;;;;5041326;28;20486;-76
2023/05/18 07:55:07;;;;;;;1.43;0.90;;;17.20;75.90;;;;;;5052264;28;20570;-76
2023/05/18 07:57:35;;;;;;;1.47;0.90;;;17.40;76.60;;;;;;5051410;28;20881;-76
2023/05/18 08:00:05;;;;;;;1.50;0.90;;;17.40;76.10;;;;;;5050735;28;20539;-78
2023/05/18 08:02:33;;;;;;;1.50;1.00;;;17.70;77.00;;;;;;5038862;28;20486;-76
2023/05/18 08:05:00;;;;;;;1.47;0.90;;;17.80;75.00;;;;;;5055306;28;20970;-76
2023/05/18 08:07:29;;;;;;;1.50;0.90;;;17.90;73.40;;;;;;5050333;28;20481;-77
2023/05/18 08:09:57;;;;;;;1.50;0.90;;;17.80;72.40;;;;;;5053893;28;20462;-77
2023/05/18 08:12:24;;;;;;;1.47;0.90;;;17.80;73.00;;;;;;5049230;28;21017;-76
2023/05/18 08:14:51;;;;;;;1.50;0.90;;;17.90;72.90;;;;;;5049159;28;20469;-74
2023/05/18 08:17:20;;;;;;;1.50;1.10;;;17.90;73.70;;;;;;5047026;28;20576;-74
2023/05/18 08:19:47;;;;;;;1.50;0.90;;;17.90;73.60;;;;;;5053925;28;20471;-74
2023/05/18 08:22:15;;;;;;;1.43;0.90;;;18.00;73.50;;;;;;5046492;28;20482;-75
2023/05/18 08:24:43;;;;;;;1.50;0.90;;;18.20;72.20;;;;;;5047867;28;20850;-77
2023/05/18 08:27:11;;;;;;;1.43;0.90;;;18.40;70.10;;;;;;5051469;28;21064;-78
2023/05/18 08:29:42;;;;;;;1.47;0.90;;;18.50;69.90;;;;;;5046104;28;20478;-75
2023/05/18 08:32:11;;;;;;;1.50;1.00;;;18.40;70.40;;;;;;5043351;28;20494;-75
2023/05/18 08:34:40;;;;;;;1.50;1.10;;;18.30;70.40;;;;;;5047609;28;20845;-76
2023/05/18 08:37:38;;;;;;;1.47;0.90;;;18.50;73.00;;;;;;5049775;28;20482;-75
2023/05/18 08:40:09;;;;;;;1.47;0.90;;;18.70;70.30;;;;;;5048395;28;20466;-76
2023/05/18 08:42:44;;;;;;;1.43;0.90;;;18.80;68.90;;;;;;5049791;28;21229;-77
2023/05/18 08:45:15;;;;;;;1.47;0.90;;;18.70;69.90;;;;;;5057575;28;20465;-77
2023/05/18 08:47:44;;;;;;;1.47;0.90;;;19.00;71.00;;;;;;5049883;28;20525;-77
2023/05/18 08:50:14;;;;;;;1.43;0.90;;;19.20;70.70;;;;;;5054032;28;20466;-76
2023/05/18 08:52:48;;;;;;;1.47;0.90;;;19.30;71.00;;;;;;5052485;28;20535;-76
2023/05/18 08:55:17;;;;;;;1.47;0.90;;;19.40;71.00;;;;;;5050076;28;20471;-77
2023/05/18 08:57:53;;;;;;;1.43;0.90;;;19.70;71.10;;;;;;5047301;28;20789;-77
2023/05/18 09:00:21;;;;;;;1.43;0.90;;;19.80;67.40;;;;;;5047463;28;20521;-76
2023/05/18 09:02:48;;;;;;;1.50;0.87;;;19.80;70.70;;;;;;5044619;28;20470;-76
2023/05/18 09:05:18;;;;;;;1.47;0.87;;;20.10;70.50;;;;;;5041543;28;20477;-76
2023/05/18 09:07:46;;;;;;;1.47;0.90;;;20.20;69.40;;;;;;5045161;28;20494;-76
2023/05/18 09:10:15;;;;;;;1.43;0.90;;;20.10;66.80;;;;;;5055686;28;21060;-75
2023/05/18 09:12:45;;;;;;;1.47;0.90;;;19.90;67.50;;;;;;5053924;28;20450;-76
2023/05/18 09:15:13;;;;;;;1.47;0.90;;;19.80;68.40;;;;;;5056930;28;20460;-76
2023/05/18 09:17:40;;;;;;;1.47;0.90;;;19.70;68.40;;;;;;5050072;28;20493;-77
2023/05/18 09:20:19;;;;;;;1.43;0.90;;;20.00;69.20;;;;;;5050307;28;20466;-76
2023/05/18 09:26:21;;;;;;;1.50;0.90;;;20.40;67.80;;;;;;4982063;28;20865;-75
2023/05/18 09:28:52;;;;;;;1.47;0.87;;;20.60;67.00;;;;;;4983759;28;20493;-76
2023/05/18 09:31:23;;;;;;;1.40;0.90;;;20.60;66.70;;;;;;5015372;28;20581;-77
2023/05/18 09:33:50;;;;;;;1.50;0.90;;;20.50;67.40;;;;;;5045020;28;20465;-77
2023/05/18 09:36:17;;;;;;;1.50;0.90;;;20.70;68.60;;;;;;5048546;28;20752;-76
2023/05/18 09:38:46;;;;;;;1.60;1.10;;;20.90;69.30;;;;;;5045121;28;20486;-77
2023/05/18 09:41:15;;;;;;;1.40;0.87;;;21.30;69.20;;;;;;5051976;28;20495;-76
2023/05/18 09:43:44;;;;;;;1.50;0.90;;;21.60;68.30;;;;;;5054346;28;20466;-76
2023/05/18 09:46:12;;;;;;;1.43;0.87;;;21.80;68.40;;;;;;5048768;28;20864;-76
2023/05/18 09:48:43;;;;;;;1.50;0.90;;;21.90;67.70;;;;;;5052796;28;20531;-77
2023/05/18 09:51:12;;;;;;;1.47;0.90;;;21.80;66.70;;;;;;5047599;28;20819;-76
2023/05/18 09:53:40;;;;;;;1.43;0.90;;;21.50;66.40;;;;;;5046060;28;20465;-77
2023/05/18 09:56:10;;;;;;;1.40;0.90;;;21.30;67.80;;;;;;5046540;28;20975;-77
2023/05/18 09:58:39;;;;;;;1.50;0.90;;;21.40;67.40;;;;;;5044586;28;20469;-78
2023/05/18 10:01:06;;;;;;;1.50;0.90;;;21.50;67.60;;;;;;5044630;28;20462;-80
2023/05/18 10:03:36;;;;;;;1.40;0.90;;;21.50;67.90;;;;;;5041632;28;20496;-76
2023/05/18 10:06:06;;;;;;;1.47;0.90;;;21.70;67.30;;;;;;5041295;28;20466;-78
2023/05/18 10:09:13;;;;;;;1.43;0.90;;;21.80;67.80;;;;;;5037043;28;20591;-77
2023/05/18 10:11:42;;;;;;;1.43;0.90;;;21.80;67.00;;;;;;5034108;28;20466;-78
2023/05/18 10:14:11;;;;;;;1.50;0.90;;;21.90;67.80;;;;;;5037747;28;20485;-77
2023/05/18 10:16:40;;;;;;;10.60;1.67;;;22.20;67.20;;;;;;5040639;28;20479;-77
2023/05/18 10:19:09;;;;;;;1.43;0.83;;;22.30;66.40;;;;;;5046917;28;20489;-80
2023/05/18 10:25:03;;;;;;;1.40;0.87;;;22.00;67.30;;;;;;5022284;28;20496;-77
2023/05/18 10:27:35;;;;;;;1.43;0.80;;;22.10;66.80;;;;;;5049229;28;20829;-77
2023/05/18 10:30:04;;;;;;;1.40;0.90;;;22.30;67.50;;;;;;5045721;28;20494;-77
2023/05/18 10:32:35;;;;;;;1.40;0.80;;;22.40;67.30;;;;;;5051605;28;20461;-76
2023/05/18 10:38:39;;;;;;;1.40;0.80;;;22.60;66.50;;;;;;5049041;28;20801;-77
2023/05/18 10:41:07;;;;;;;1.40;0.90;;;22.90;65.50;;;;;;5046046;28;20457;-76
2023/05/18 10:43:36;;;;;;;1.43;0.80;;;23.10;64.60;;;;;;5046146;28;20474;-76
2023/05/18 10:46:07;;;;;;;1.40;0.80;;;23.30;64.70;;;;;;5045098;28;20976;-78
2023/05/18 10:48:40;;;;;;;1.40;0.80;;;23.30;65.60;;;;;;5046595;28;20538;-77
2023/05/18 10:51:14;;;;;;;1.47;0.80;;;23.40;65.30;;;;;;5044188;28;20562;-77
2023/05/18 10:53:46;;;;;;;1.47;0.80;;;23.20;64.00;;;;;;5040297;28;20462;-78
2023/05/18 10:56:22;;;;;;;1.47;0.80;;;23.00;64.60;;;;;;5041435;28;20453;-76
2023/05/18 10:59:17;;;;;;;;;;;;;;;;;;;;;
2023/05/18 11:01:49;;;;;;;1.40;0.80;;;22.70;64.80;;;;;;5034634;28;20462;-78
2023/05/18 11:07:13;;;;;;;1.43;0.87;;;23.00;65.20;;;;;;5045514;28;20655;-77
2023/05/18 11:09:42;;;;;;;1.40;0.80;;;23.10;64.40;;;;;;5047329;28;20507;-77
2023/05/18 11:12:13;;;;;;;1.47;0.80;;;22.90;65.00;;;;;;5057515;28;20458;-77
2023/05/18 11:14:50;;;;;;;1.50;0.90;;;22.40;64.30;;;;;;5048357;28;20617;-76
2023/05/18 11:17:20;;;;;;;1.47;0.80;;;22.10;66.60;;;;;;5043248;28;20530;-77
2023/05/18 11:20:11;;;;;;;1.40;0.80;;;22.10;68.00;;;;;;5033334;28;21112;-76
2023/05/18 11:22:45;;;;;;;1.40;0.80;;;22.30;66.40;;;;;;5026195;28;20478;-77
2023/05/18 11:25:39;;;;;;;1.40;0.80;;;22.50;65.00;;;;;;5037685;28;20831;-77
2023/05/18 11:28:08;;;;;;;1.40;0.90;;;22.80;67.00;;;;;;5035173;28;20489;-77
2023/05/18 11:30:48;;;;;;;1.40;0.80;;;22.70;65.50;;;;;;5035792;28;20458;-77
2023/05/18 11:33:18;;;;;;;1.43;0.80;;;22.70;66.50;;;;;;5028540;28;20949;-76
2023/05/18 11:39:06;;;;;;;1.47;0.80;;;23.20;65.60;;;;;;4973496;28;20492;-77
2023/05/18 11:41:34;;;;;;;1.50;0.80;;;23.50;64.80;;;;;;4977378;28;20476;-77
2023/05/18 11:44:24;;;;;;;1.40;0.80;;;23.50;65.60;;;;;;5012146;28;20473;-78
2023/05/18 11:47:04;;;;;;;1.40;0.87;;;23.50;67.10;;;;;;5039450;28;20466;-77
2023/05/18 11:49:59;;;;;;;1.47;0.80;;;23.70;66.00;;;;;;5040237;28;20533;-76
2023/05/18 11:53:00;;;;;;;1.40;0.80;;;23.50;64.00;;;;;;5038777;28;20458;-77
2023/05/18 11:55:39;;;;;;;1.47;0.80;;;23.10;63.80;;;;;;5039189;28;20465;-75
2023/05/18 11:58:09;;;;;;;1.43;0.80;;;23.10;66.30;;;;;;5034021;28;21002;-76
2023/05/18 12:00:38;;;;;;;1.40;0.80;;;23.20;66.80;;;;;;5039305;28;20493;-77
2023/05/18 12:03:15;;;;;;;1.40;0.80;;;23.00;64.70;;;;;;5038113;28;20802;-77
2023/05/18 12:05:48;;;;;;;1.40;0.80;;;23.10;66.60;;;;;;5043725;28;20559;-77
2023/05/18 12:08:29;;;;;;;1.40;0.80;;;23.10;65.80;;;;;;5044890;28;20485;-75
2023/05/18 12:10:58;;;;;;;1.40;0.80;;;23.10;64.80;;;;;;5040080;28;20491;-76
2023/05/18 12:13:26;;;;;;;1.47;1.00;;;23.10;66.40;;;;;;5043259;28;20837;-75
2023/05/18 12:16:26;;;;;;;1.43;0.80;;;23.20;64.00;;;;;;5040834;28;20494;-76
2023/05/18 12:18:58;;;;;;;1.40;0.80;;;23.40;65.10;;;;;;5038523;28;20494;-76
2023/05/18 12:24:52;;;;;;;1.47;0.83;;;23.60;64.10;;;;;;5010150;28;20476;-78
2023/05/18 12:27:25;;;;;;;1.43;0.80;;;23.60;65.50;;;;;;5042770;28;20494;-78
2023/05/18 12:29:52;;;;;;;1.40;0.87;;;23.70;67.00;;;;;;5045503;28;20553;-77
2023/05/18 12:32:37;;;;;;;1.43;0.90;;;24.00;65.90;;;;;;5047169;28;20498;-77
2023/05/18 12:38:31;;;;;;;1.47;0.90;;;23.90;64.90;;;;;;5027590;22;20486;-76
2023/05/18 12:40:58;;;;;;;1.90;1.20;;;23.90;65.00;;;;;;5018215;28;20456;-76
2023/05/18 12:43:26;;;;;;;1.97;1.00;;;23.90;65.80;;;;;;5023809;28;20493;-77
2023/05/18 12:46:03;;;;;;;1.40;0.87;;;24.10;66.00;;;;;;5021715;28;20459;-77
2023/05/18 12:48:36;;;;;;;1.43;0.90;;;24.20;63.50;;;;;;5034805;28;20485;-77
2023/05/18 12:51:06;;;;;;;1.50;0.90;;;24.10;63.80;;;;;;5045251;28;21024;-77
2023/05/18 12:53:42;;;;;;;1.47;0.80;;;23.70;63.30;;;;;;5042826;28;20489;-76
2023/05/18 12:56:10;;;;;;;1.43;0.80;;;23.50;65.50;;;;;;5038677;28;20473;-78
2023/05/18 12:58:38;;;;;;;1.40;0.80;;;23.40;64.30;;;;;;5042130;28;20500;-76
2023/05/18 13:01:09;;;;;;;1.43;0.80;;;23.30;65.70;;;;;;5042742;28;20557;-77
2023/05/18 13:03:40;;;;;;;1.43;0.90;;;23.50;65.10;;;;;;5045137;28;20545;-77
2023/05/18 13:06:09;;;;;;;1.40;0.80;;;23.70;64.90;;;;;;5044725;28;20462;-77
2023/05/18 13:09:04;;;;;;;1.43;0.80;;;23.50;64.50;;;;;;5046161;28;20482;-77
2023/05/18 13:11:46;;;;;;;1.43;0.80;;;23.20;63.80;;;;;;5040209;28;20589;-77
2023/05/18 13:14:15;;;;;;;1.50;0.80;;;23.30;66.40;;;;;;5043654;28;20715;-78
2023/05/18 13:16:45;;;;;;;1.43;0.80;;;23.40;66.20;;;;;;5046816;28;20465;-79
2023/05/18 13:19:18;;;;;;;1.50;0.80;;;23.40;64.50;;;;;;5040196;28;20486;-78
2023/05/18 13:25:29;;;;;;;1.40;0.80;;;23.40;65.70;;;;;;4913614;28;20518;-77
2023/05/18 13:27:58;;;;;;;1.40;0.80;;;23.50;64.90;;;;;;5026651;28;20486;-77
2023/05/18 13:30:26;;;;;;;1.40;0.80;;;23.40;64.20;;;;;;5043579;28;20470;-77
2023/05/18 13:32:53;;;;;;;1.43;0.90;;;23.20;66.00;;;;;;5046767;28;20477;-78
2023/05/18 13:38:44;;;;;;;1.40;0.90;;;22.70;66.60;;;;;;5044730;28;20843;-79
2023/05/18 13:41:13;;;;;;;1.50;0.90;;;22.80;65.40;;;;;;5057571;28;20486;-78